Airfield :
LOGIN :

Register | Disclaimer

   EN    FR    IT 

 










Legend :    VFR   Marginal VFR   IFR   Intensive IFR   Very Intensive IFR
Visi :
Ceiling :
>= 8 km
>= 3000ft
5 to 8 km
1000 to 3000 ft
1500m to 5 km
500 to 1000 ft
800 to 1500m
200 to 500 ft
< 800m
< 200 ft
Symbols :   Thunderstorms  Fog  Heavy snow  Heavy precipitations  Wind > 20 kt
SIGMETs :     Misc.  Thunderstorms  Icing  Turbulence  Mountain Waves  Volcanic Ashes






- Airport Elevation : 219 ft
- IATA code : DNR


LFRD - Dinard

CURRENT METAR :
  • 250800Z AUTO 03007KT 360V060 CAVOK 19/15 Q1015 NOSIG

EXPIRED METARs :
  • 250730Z AUTO 04008KT 360V060 CAVOK 19/15 Q1015 NOSIG
  • 250700Z AUTO 02007KT 340V060 CAVOK 18/15 Q1015 NOSIG
  • 250630Z AUTO 01008KT CAVOK 18/15 Q1015 NOSIG
  • 250600Z AUTO 03007KT CAVOK 17/15 Q1015 NOSIG
  • 250530Z AUTO 01006KT CAVOK 16/15 Q1015 NOSIG
  • 250500Z AUTO 35004KT CAVOK 15/14 Q1015 TEMPO 4000 BR
  • 250430Z AUTO VRB03KT CAVOK 14/14 Q1015 TEMPO 4000 BR
  • 250400Z AUTO 00000KT CAVOK 14/14 Q1015 TEMPO 4000 BR
  • 250330Z AUTO VRB03KT CAVOK 14/13 Q1015 TEMPO 4000 BR

TAF TAF LFRD
Valid from the 25 at 06:00 until the 26 at 06:00 UTC


250500Z 2506/2606 VRB04KT 9999 SCT045
BECMG 2509/2511 02010KT
BECMG 2519/2522 VRB05KT
PROB40
TEMPO 2602/2606 3000 BR
PROB30
TEMPO 2604/2606 0500 FG VV///
ATIS : +33 2 99 16 81 50



MET'MAP, your aeronautical weather chart ! - Copyright ORBIFLY December 2007 - Disclaimer

ORBIFLY MET'MAP TEAM :

Programming & Development : Alexandra Zaïnal
Original concept : Baudouin d'Aumeries
Technical & hardware support : Manuel Goepfert
Assistance : Marc-Olivier Méhu




SOURCES & CREDITS :

   NOAA